createdAt,value
2022-09-28T00:00:58.593Z,8.13
2022-09-28T00:03:28.093Z,8.02
2022-09-28T00:06:02.087Z,7.95
2022-09-28T00:08:29.888Z,7.89
2022-09-28T00:10:59.302Z,7.85
2022-09-28T00:13:28.178Z,7.78
2022-09-28T00:16:04.461Z,7.80
2022-09-28T00:18:33.638Z,7.76
2022-09-28T00:21:03.452Z,7.72
2022-09-28T00:23:31.957Z,7.65
2022-09-28T00:26:04.649Z,7.56
2022-09-28T00:28:32.703Z,7.53
2022-09-28T00:31:00.896Z,7.41
2022-09-28T00:33:28.603Z,7.35
2022-09-28T00:35:58.020Z,7.40
2022-09-28T00:38:28.493Z,7.40
2022-09-28T00:40:56.854Z,7.31
2022-09-28T00:43:29.439Z,7.27
2022-09-28T00:46:00.453Z,7.25
2022-09-28T00:48:31.426Z,7.10
2022-09-28T00:50:59.636Z,7.11
2022-09-28T00:53:31.703Z,7.25
2022-09-28T00:56:01.013Z,7.27
2022-09-28T00:58:31.704Z,7.30
2022-09-28T01:01:00.432Z,7.41
2022-09-28T01:03:29.683Z,7.39
2022-09-28T01:05:59.780Z,7.42
2022-09-28T01:08:29.259Z,7.45
2022-09-28T01:10:57.464Z,7.46
2022-09-28T01:13:25.699Z,7.54
2022-09-28T01:16:00.768Z,7.60
2022-09-28T01:18:34.295Z,7.66
2022-09-28T01:21:03.341Z,7.69
2022-09-28T01:24:00.187Z,7.72
2022-09-28T01:27:00.647Z,7.77
2022-09-28T01:29:35.879Z,7.77
2022-09-28T01:32:12.798Z,7.78
2022-09-28T01:34:43.877Z,7.81
2022-09-28T01:37:12.971Z,7.85
2022-09-28T01:39:43.165Z,7.86
2022-09-28T01:42:16.642Z,7.92
2022-09-28T01:44:46.457Z,7.85
2022-09-28T01:47:16.714Z,7.85
2022-09-28T01:49:47.449Z,7.90
2022-09-28T01:52:17.578Z,7.92
2022-09-28T01:54:48.796Z,7.94
2022-09-28T01:57:20.268Z,7.93
2022-09-28T01:59:59.731Z,7.91
2022-09-28T02:02:32.627Z,7.94
2022-09-28T02:05:04.576Z,8.02
2022-09-28T02:07:36.043Z,8.03
2022-09-28T02:10:09.776Z,7.95
2022-09-28T02:12:40.553Z,7.96
2022-09-28T02:15:13.364Z,7.99
2022-09-28T02:17:41.646Z,8.01
2022-09-28T02:20:10.055Z,7.94
2022-09-28T02:22:42.991Z,7.88
2022-09-28T02:25:12.997Z,7.91
2022-09-28T02:27:45.008Z,7.91
2022-09-28T02:30:13.524Z,7.87
2022-09-28T02:32:43.625Z,7.88
2022-09-28T02:35:15.955Z,7.84
2022-09-28T02:37:44.655Z,7.86
2022-09-28T02:40:16.395Z,7.93
2022-09-28T02:42:54.364Z,7.92
2022-09-28T02:45:31.242Z,7.83
2022-09-28T02:48:06.673Z,7.79
2022-09-28T02:50:41.472Z,7.82
2022-09-28T02:53:29.089Z,7.85
2022-09-28T02:56:11.293Z,7.86
2022-09-28T02:58:50.838Z,7.84
2022-09-28T03:01:31.271Z,7.93
2022-09-28T03:04:02.473Z,7.96
2022-09-28T03:06:34.056Z,7.93
2022-09-28T03:09:06.490Z,7.94
2022-09-28T03:11:36.453Z,7.91
2022-09-28T03:14:06.088Z,7.90
2022-09-28T03:16:33.933Z,7.88
2022-09-28T03:19:01.728Z,7.90
2022-09-28T03:21:29.588Z,7.86
2022-09-28T03:23:57.843Z,7.89
2022-09-28T03:26:25.633Z,7.86
2022-09-28T03:28:53.548Z,7.80
2022-09-28T03:31:22.653Z,7.90
2022-09-28T03:33:52.483Z,7.86
2022-09-28T03:36:20.937Z,7.83
2022-09-28T03:38:49.118Z,7.84
2022-09-28T03:41:17.741Z,7.80
2022-09-28T03:43:45.501Z,7.82
2022-09-28T03:46:13.200Z,7.88
2022-09-28T03:48:42.698Z,7.81
2022-09-28T03:51:11.732Z,7.79
2022-09-28T03:53:40.515Z,7.80
2022-09-28T03:56:10.190Z,7.83
2022-09-28T03:58:39.023Z,7.78
2022-09-28T04:01:14.162Z,7.75
2022-09-28T04:03:46.737Z,7.72
2022-09-28T04:06:15.312Z,7.79
2022-09-28T04:08:43.481Z,7.70
2022-09-28T04:11:11.397Z,7.71
2022-09-28T04:13:39.297Z,7.64
2022-09-28T04:16:07.354Z,7.66
2022-09-28T04:18:35.622Z,7.70
2022-09-28T04:21:07.820Z,7.64
2022-09-28T04:23:36.541Z,7.68
2022-09-28T04:26:04.501Z,7.73
2022-09-28T04:28:49.398Z,7.67
2022-09-28T04:31:19.250Z,7.61
2022-09-28T04:33:47.219Z,7.56
2022-09-28T04:36:16.363Z,7.53
2022-09-28T04:38:59.362Z,7.53
2022-09-28T04:41:27.348Z,7.56
2022-09-28T04:43:54.989Z,7.61
2022-09-28T04:46:22.727Z,7.58
2022-09-28T04:48:50.595Z,7.62
2022-09-28T04:51:20.568Z,7.63
2022-09-28T04:53:48.342Z,7.63
2022-09-28T04:56:16.671Z,7.72
2022-09-28T04:58:50.304Z,7.68
2022-09-28T05:01:21.187Z,7.72
2022-09-28T05:03:49.144Z,7.70
2022-09-28T05:06:17.100Z,7.62
2022-09-28T05:08:47.397Z,7.69
2022-09-28T05:11:16.101Z,7.69
2022-09-28T05:13:46.209Z,7.68
2022-09-28T05:16:15.958Z,7.63
2022-09-28T05:18:43.916Z,7.67
2022-09-28T05:21:13.135Z,7.64
2022-09-28T05:23:40.859Z,7.60
2022-09-28T05:26:09.965Z,7.62
2022-09-28T05:28:37.854Z,7.67
2022-09-28T05:31:06.585Z,7.66
2022-09-28T05:33:35.161Z,7.71
2022-09-28T05:36:03.508Z,7.67
2022-09-28T05:38:32.308Z,7.69
2022-09-28T05:41:04.350Z,7.76
2022-09-28T05:43:36.316Z,7.71
2022-09-28T05:46:04.091Z,7.76
2022-09-28T05:48:31.883Z,7.74
2022-09-28T05:50:59.822Z,7.77
2022-09-28T05:53:28.410Z,7.77
2022-09-28T05:55:58.975Z,7.80
2022-09-28T05:58:27.308Z,7.72
2022-09-28T06:00:57.698Z,7.87
2022-09-28T06:03:26.372Z,7.78
2022-09-28T06:05:54.739Z,7.81
2022-09-28T06:08:22.536Z,7.99
2022-09-28T06:10:50.267Z,7.95
2022-09-28T06:13:17.961Z,7.91
2022-09-28T06:15:46.425Z,7.94
2022-09-28T06:18:15.941Z,8.04
2022-09-28T06:20:44.340Z,7.93
2022-09-28T06:23:14.245Z,8.01
2022-09-28T06:25:42.421Z,8.04
2022-09-28T06:28:11.712Z,8.16
2022-09-28T06:30:39.520Z,8.14
2022-09-28T06:33:08.537Z,8.18
2022-09-28T06:35:37.632Z,8.17
2022-09-28T06:38:05.364Z,8.13
2022-09-28T06:40:34.327Z,8.13
2022-09-28T06:43:03.560Z,8.29
2022-09-28T06:45:31.873Z,8.06
2022-09-28T06:48:00.853Z,8.15
2022-09-28T06:50:32.166Z,8.17
2022-09-28T06:53:02.117Z,8.19
2022-09-28T06:55:30.320Z,8.03
2022-09-28T06:57:59.364Z,8.08
2022-09-28T07:00:27.866Z,8.15
2022-09-28T07:02:55.602Z,8.06
2022-09-28T07:05:24.223Z,8.05
2022-09-28T07:07:54.451Z,8.05
2022-09-28T07:10:24.370Z,8.05
2022-09-28T07:12:52.596Z,8.19
2022-09-28T07:15:22.852Z,8.23
2022-09-28T07:18:00.466Z,8.20
2022-09-28T07:20:30.745Z,8.37
2022-09-28T07:23:11.939Z,8.37
2022-09-28T07:25:48.042Z,8.59
2022-09-28T07:28:16.507Z,8.61
2022-09-28T07:30:45.357Z,8.71
2022-09-28T07:33:16.029Z,8.77
2022-09-28T07:35:52.001Z,8.60
2022-09-28T07:38:20.545Z,8.77
2022-09-28T07:41:07.622Z,8.58
2022-09-28T07:43:35.417Z,8.60
2022-09-28T07:46:03.329Z,8.73
2022-09-28T07:48:36.638Z,8.77
2022-09-28T07:51:05.119Z,9.18
2022-09-28T07:53:33.284Z,9.43
2022-09-28T07:56:07.246Z,9.08
2022-09-28T07:58:36.542Z,9.29
2022-09-28T08:01:06.931Z,8.97
2022-09-28T08:03:35.707Z,8.98
2022-09-28T08:06:05.226Z,9.19
2022-09-28T08:08:34.621Z,8.86
2022-09-28T08:11:04.461Z,8.93
2022-09-28T08:13:32.132Z,8.90
2022-09-28T08:16:02.789Z,8.87
2022-09-28T08:18:31.247Z,8.82
2022-09-28T08:21:17.506Z,8.97
2022-09-28T08:23:45.204Z,8.86
2022-09-28T08:26:15.659Z,9.02
2022-09-28T08:28:45.003Z,9.16
2022-09-28T08:31:12.882Z,9.30
2022-09-28T08:33:42.028Z,9.14
2022-09-28T08:36:11.324Z,9.22
2022-09-28T08:38:39.165Z,9.41
2022-09-28T08:41:18.097Z,9.38
2022-09-28T08:44:16.824Z,9.23
2022-09-28T08:46:47.695Z,9.25
2022-09-28T08:49:25.365Z,9.45
2022-09-28T08:51:57.438Z,9.52
2022-09-28T08:54:35.157Z,9.60
2022-09-28T08:57:06.816Z,9.66
2022-09-28T08:59:44.712Z,9.50
2022-09-28T09:02:17.043Z,9.54
2022-09-28T09:04:45.048Z,9.58
2022-09-28T09:07:22.562Z,9.40
2022-09-28T09:09:59.391Z,9.66
2022-09-28T09:12:34.832Z,9.63
2022-09-28T09:15:13.110Z,9.99
2022-09-28T09:17:49.820Z,9.72
2022-09-28T09:20:20.552Z,9.26
2022-09-28T09:22:59.390Z,9.61
2022-09-28T09:25:29.489Z,9.69
2022-09-28T09:28:26.376Z,10.01
2022-09-28T09:31:03.393Z,9.87
2022-09-28T09:33:53.461Z,9.75
2022-09-28T09:36:32.084Z,9.73
2022-09-28T09:39:22.753Z,9.76
2022-09-28T09:42:04.036Z,9.71
2022-09-28T09:44:52.328Z,9.80
2022-09-28T09:47:22.413Z,9.91
2022-09-28T09:49:52.554Z,10.21
2022-09-28T09:52:23.591Z,10.00
2022-09-28T09:54:56.162Z,10.18
2022-09-28T09:57:30.824Z,9.81
2022-09-28T10:00:01.907Z,9.76
2022-09-28T10:02:32.091Z,10.07
2022-09-28T10:05:03.660Z,10.04
2022-09-28T10:07:43.221Z,10.24
2022-09-28T10:10:13.931Z,10.67
2022-09-28T10:12:43.107Z,11.04
2022-09-28T10:15:24.326Z,11.37
2022-09-28T10:17:52.728Z,10.93
2022-09-28T10:20:20.706Z,11.18
2022-09-28T10:22:48.784Z,10.94
2022-09-28T10:25:17.039Z,10.88
2022-09-28T10:27:46.744Z,11.01
2022-09-28T10:30:19.318Z,10.83
2022-09-28T10:32:48.887Z,11.06
2022-09-28T10:35:25.410Z,11.68
2022-09-28T10:37:57.258Z,11.54
2022-09-28T10:40:40.506Z,12.01
2022-09-28T10:43:18.796Z,11.98
2022-09-28T10:45:47.857Z,11.34
2022-09-28T10:48:21.734Z,10.89
2022-09-28T10:50:59.898Z,10.66
2022-09-28T10:53:28.328Z,10.68
2022-09-28T10:56:01.594Z,10.94
2022-09-28T10:58:34.239Z,10.85
2022-09-28T11:01:08.506Z,11.14
2022-09-28T11:03:42.971Z,11.15
2022-09-28T11:06:10.871Z,11.01
2022-09-28T11:08:40.721Z,10.89
2022-09-28T11:11:11.146Z,10.84
2022-09-28T11:13:41.174Z,11.10
2022-09-28T11:16:21.202Z,11.23
2022-09-28T11:18:49.039Z,11.13
2022-09-28T11:21:18.316Z,11.23
2022-09-28T11:23:57.724Z,11.61
2022-09-28T11:26:26.111Z,12.03
2022-09-28T11:28:54.296Z,11.97
2022-09-28T11:31:29.097Z,12.20
2022-09-28T11:34:13.555Z,12.05
2022-09-28T11:37:08.707Z,12.21
2022-09-28T11:39:42.413Z,12.22
2022-09-28T11:42:19.574Z,12.80
2022-09-28T11:44:48.054Z,13.32
2022-09-28T11:47:42.735Z,12.70
2022-09-28T11:50:24.180Z,13.14
2022-09-28T11:52:58.476Z,13.64
2022-09-28T11:55:30.894Z,13.50
2022-09-28T11:58:03.820Z,12.77
2022-09-28T12:00:32.596Z,12.54
2022-09-28T12:03:08.558Z,12.02
2022-09-28T12:05:41.519Z,12.01
2022-09-28T12:08:15.727Z,11.99
2022-09-28T12:10:48.982Z,11.75
2022-09-28T12:13:20.316Z,11.75
2022-09-28T12:16:20.090Z,11.90
2022-09-28T12:18:48.421Z,12.21
2022-09-28T12:21:28.362Z,12.07
2022-09-28T12:23:59.339Z,12.35
2022-09-28T12:26:34.616Z,12.73
2022-09-28T12:29:11.485Z,12.91
2022-09-28T12:31:42.039Z,13.26
2022-09-28T12:34:11.541Z,12.98
2022-09-28T12:36:47.575Z,12.58
2022-09-28T12:39:41.202Z,12.92
2022-09-28T12:42:32.227Z,13.37
2022-09-28T12:45:13.692Z,14.16
2022-09-28T12:48:01.997Z,13.62
2022-09-28T12:50:39.381Z,13.60
2022-09-28T12:53:23.448Z,13.28
2022-09-28T12:55:56.196Z,13.64
2022-09-28T12:58:36.647Z,13.60
2022-09-28T13:01:18.138Z,13.43
2022-09-28T13:04:09.239Z,13.22
2022-09-28T13:07:02.648Z,14.02
2022-09-28T13:09:34.353Z,13.47
2022-09-28T13:12:13.263Z,14.32
2022-09-28T13:15:18.392Z,14.94
2022-09-28T13:18:05.097Z,15.99
2022-09-28T13:20:40.140Z,15.12
2022-09-28T13:23:17.467Z,15.19
2022-09-28T13:25:50.910Z,16.55
2022-09-28T13:28:26.238Z,17.21
2022-09-28T13:30:56.633Z,15.55
2022-09-28T13:33:35.549Z,16.03
2022-09-28T13:36:05.604Z,15.92
2022-09-28T13:38:52.822Z,15.68
2022-09-28T13:41:28.985Z,16.38
2022-09-28T13:44:20.951Z,15.88
2022-09-28T13:47:04.461Z,15.72
2022-09-28T13:49:41.045Z,16.42
2022-09-28T13:52:11.354Z,18.06
2022-09-28T13:54:50.777Z,19.04
2022-09-28T13:57:21.544Z,19.20
2022-09-28T13:59:59.170Z,20.55
2022-09-28T14:02:34.027Z,19.93
2022-09-28T14:05:04.393Z,19.13
2022-09-28T14:08:17.194Z,18.65
2022-09-28T14:10:53.730Z,20.00
2022-09-28T14:14:00.050Z,21.38
2022-09-28T14:16:31.241Z,20.04
2022-09-28T14:19:02.856Z,18.39
2022-09-28T14:22:01.856Z,18.91
2022-09-28T14:25:04.488Z,19.52
2022-09-28T14:27:53.740Z,16.44
2022-09-28T14:30:24.055Z,14.77
2022-09-28T14:32:57.942Z,14.04
2022-09-28T14:35:31.353Z,14.10
2022-09-28T14:38:23.588Z,14.59
2022-09-28T14:41:12.871Z,14.19
2022-09-28T14:44:04.616Z,14.56
2022-09-28T14:46:44.158Z,18.26
2022-09-28T14:49:50.483Z,17.56
2022-09-28T14:53:22.614Z,16.18
2022-09-28T14:55:55.403Z,20.77
2022-09-28T14:58:26.813Z,20.27
2022-09-28T15:01:02.808Z,20.34
2022-09-28T15:03:33.145Z,21.10
2022-09-28T15:06:01.868Z,21.84
2022-09-28T15:08:39.681Z,21.65
2022-09-28T15:11:11.505Z,21.55
2022-09-28T15:13:40.764Z,20.97
2022-09-28T15:16:12.662Z,20.34
2022-09-28T15:19:03.313Z,17.53
2022-09-28T15:21:36.378Z,18.27
2022-09-28T15:24:04.644Z,20.51
2022-09-28T15:26:33.805Z,20.86
2022-09-28T15:29:03.978Z,21.48
2022-09-28T15:31:37.022Z,19.79
2022-09-28T15:34:22.195Z,16.89
2022-09-28T15:36:50.316Z,14.76
2022-09-28T15:39:22.161Z,13.88
2022-09-28T15:41:51.791Z,13.71
2022-09-28T15:44:38.964Z,13.41
2022-09-28T15:47:13.742Z,13.27
2022-09-28T15:49:45.367Z,12.96
2022-09-28T15:52:26.475Z,12.75
2022-09-28T15:55:58.777Z,12.63
2022-09-28T15:58:27.330Z,12.41
2022-09-28T16:01:26.269Z,12.55
2022-09-28T16:03:56.658Z,12.30
2022-09-28T16:06:25.073Z,12.17
2022-09-28T16:08:53.841Z,12.08
2022-09-28T16:11:24.164Z,12.01
2022-09-28T16:13:57.481Z,11.82
2022-09-28T16:16:27.820Z,11.73
2022-09-28T16:19:02.517Z,11.75
2022-09-28T16:21:43.644Z,11.68
2022-09-28T16:24:20.950Z,11.52
2022-09-28T16:26:49.335Z,11.48
2022-09-28T16:29:26.896Z,11.22
2022-09-28T16:31:55.324Z,11.22
2022-09-28T16:34:27.442Z,11.14
2022-09-28T16:36:55.396Z,10.83
2022-09-28T16:39:23.684Z,10.73
2022-09-28T16:41:54.975Z,10.89
2022-09-28T16:44:29.837Z,10.84
2022-09-28T16:47:00.329Z,10.81
2022-09-28T16:49:36.918Z,10.61
2022-09-28T16:52:04.679Z,10.72
2022-09-28T16:54:49.964Z,10.54
2022-09-28T16:57:17.878Z,10.32
2022-09-28T16:59:49.517Z,10.60
2022-09-28T17:02:42.285Z,10.22
2022-09-28T17:05:08.450Z,10.45
2022-09-28T17:07:36.273Z,10.61
2022-09-28T17:10:13.410Z,10.74
2022-09-28T17:12:41.883Z,10.65
2022-09-28T17:15:10.016Z,10.76
2022-09-28T17:17:39.248Z,10.75
2022-09-28T17:20:17.338Z,10.68
2022-09-28T17:22:45.833Z,10.53
2022-09-28T17:25:14.598Z,10.69
2022-09-28T17:27:45.208Z,10.64
2022-09-28T17:30:14.820Z,10.49
2022-09-28T17:32:45.019Z,10.52
2022-09-28T17:35:24.753Z,10.63
2022-09-28T17:37:53.330Z,10.66
2022-09-28T17:40:23.738Z,10.52
2022-09-28T17:42:54.998Z,10.50
2022-09-28T17:45:23.392Z,10.68
2022-09-28T17:47:51.584Z,10.77
2022-09-28T17:50:23.591Z,10.90
2022-09-28T17:53:06.147Z,10.96
2022-09-28T17:55:36.346Z,11.00
2022-09-28T17:58:14.300Z,11.16
2022-09-28T18:00:42.017Z,11.19
2022-09-28T18:03:13.274Z,11.16
2022-09-28T18:05:42.938Z,10.95
2022-09-28T18:08:13.702Z,10.62
2022-09-28T18:10:41.553Z,10.37
2022-09-28T18:13:09.317Z,10.08
2022-09-28T18:15:38.008Z,9.93
2022-09-28T18:18:09.647Z,9.79
2022-09-28T18:20:38.106Z,9.51
2022-09-28T18:23:12.081Z,9.42
2022-09-28T18:25:41.182Z,9.30
2022-09-28T18:28:08.914Z,9.30
2022-09-28T18:30:40.490Z,9.24
2022-09-28T18:33:08.480Z,9.22
2022-09-28T18:35:37.979Z,9.27
2022-09-28T18:38:12.081Z,9.20
2022-09-28T18:40:39.835Z,9.19
2022-09-28T18:43:07.421Z,9.17
2022-09-28T18:45:36.529Z,9.18
2022-09-28T18:48:04.223Z,9.27
2022-09-28T18:50:34.468Z,9.12
2022-09-28T18:53:11.500Z,9.16
2022-09-28T18:55:42.603Z,9.21
2022-09-28T18:58:11.257Z,9.19
2022-09-28T19:00:42.653Z,9.21
2022-09-28T19:03:14.170Z,9.21
2022-09-28T19:05:42.908Z,9.28
2022-09-28T19:08:10.927Z,9.26
2022-09-28T19:10:38.545Z,9.22
2022-09-28T19:13:07.523Z,9.16
2022-09-28T19:15:35.312Z,9.15
2022-09-28T19:18:03.976Z,9.15
2022-09-28T19:20:33.840Z,9.17
2022-09-28T19:23:01.682Z,9.16
2022-09-28T19:25:29.636Z,9.19
2022-09-28T19:27:57.308Z,9.18
2022-09-28T19:30:26.298Z,9.19
2022-09-28T19:32:54.340Z,9.13
2022-09-28T19:35:21.857Z,9.13
2022-09-28T19:37:56.430Z,9.13
2022-09-28T19:40:27.554Z,9.13
2022-09-28T19:42:55.159Z,9.09
2022-09-28T19:45:23.731Z,9.05
2022-09-28T19:47:55.142Z,9.06
2022-09-28T19:50:26.222Z,9.01
2022-09-28T19:52:54.618Z,8.98
2022-09-28T19:55:22.961Z,8.79
2022-09-28T19:57:52.180Z,8.83
2022-09-28T20:00:20.355Z,8.85
2022-09-28T20:02:48.068Z,8.71
2022-09-28T20:05:17.232Z,8.60
2022-09-28T20:07:46.263Z,8.24
2022-09-28T20:10:14.142Z,8.42
2022-09-28T20:12:42.411Z,8.04
2022-09-28T20:15:11.156Z,8.13
2022-09-28T20:17:39.169Z,8.24
2022-09-28T20:20:07.437Z,8.30
2022-09-28T20:22:37.162Z,8.20
2022-09-28T20:25:05.276Z,8.17
2022-09-28T20:27:38.071Z,7.96
2022-09-28T20:30:07.011Z,8.03
2022-09-28T20:32:35.241Z,8.03
2022-09-28T20:35:02.801Z,7.97
2022-09-28T20:37:30.993Z,7.98
2022-09-28T20:40:01.039Z,8.01
2022-09-28T20:42:32.019Z,7.82
2022-09-28T20:45:00.193Z,7.87
2022-09-28T20:47:28.205Z,7.89
2022-09-28T20:49:56.827Z,7.74
2022-09-28T20:52:24.751Z,7.80
2022-09-28T20:54:52.253Z,7.82
2022-09-28T20:57:21.786Z,7.81
2022-09-28T20:59:54.557Z,7.90
2022-09-28T21:02:22.767Z,7.87
2022-09-28T21:04:50.559Z,7.89
2022-09-28T21:07:18.291Z,7.95
2022-09-28T21:09:46.593Z,7.96
2022-09-28T21:12:15.455Z,7.95
2022-09-28T21:14:45.388Z,8.10
2022-09-28T21:17:13.177Z,8.19
2022-09-28T21:19:40.774Z,8.23
2022-09-28T21:22:08.903Z,8.29
2022-09-28T21:24:37.084Z,8.34
2022-09-28T21:27:05.192Z,8.35
2022-09-28T21:29:32.785Z,8.39
2022-09-28T21:32:02.020Z,8.41
2022-09-28T21:34:29.965Z,8.38
2022-09-28T21:36:57.493Z,8.31
2022-09-28T21:39:25.014Z,8.39
2022-09-28T21:41:53.577Z,8.35
2022-09-28T21:44:21.205Z,8.43
2022-09-28T21:46:49.156Z,8.43
2022-09-28T21:49:18.106Z,8.51
2022-09-28T21:51:47.191Z,8.54
2022-09-28T21:54:15.328Z,8.52
2022-09-28T21:56:43.153Z,8.51
2022-09-28T21:59:10.747Z,8.56
2022-09-28T22:01:38.510Z,8.61
2022-09-28T22:04:06.227Z,8.62
2022-09-28T22:06:35.344Z,8.68
2022-09-28T22:09:03.096Z,8.71
2022-09-28T22:11:31.043Z,8.69
2022-09-28T22:14:00.070Z,8.73
2022-09-28T22:16:29.819Z,8.68
2022-09-28T22:18:57.724Z,8.75
2022-09-28T22:21:27.069Z,8.73
2022-09-28T22:24:01.089Z,8.72
2022-09-28T22:26:29.966Z,8.74
2022-09-28T22:28:59.431Z,8.73
2022-09-28T22:31:29.418Z,8.68
2022-09-28T22:33:57.377Z,8.73
2022-09-28T22:36:25.808Z,8.69
2022-09-28T22:38:54.872Z,8.69
2022-09-28T22:41:24.868Z,8.68
2022-09-28T22:43:54.471Z,8.67
2022-09-28T22:46:23.666Z,8.64
2022-09-28T22:48:52.522Z,8.60
2022-09-28T22:51:22.075Z,8.65
2022-09-28T22:53:50.100Z,8.64
2022-09-28T22:56:18.943Z,8.59
2022-09-28T22:58:48.625Z,8.55
2022-09-28T23:01:18.423Z,8.53
2022-09-28T23:03:46.658Z,8.48
2022-09-28T23:06:16.086Z,8.47
2022-09-28T23:08:44.571Z,8.49
2022-09-28T23:11:12.452Z,8.44
2022-09-28T23:13:41.041Z,8.36
2022-09-28T23:16:14.644Z,8.32
2022-09-28T23:18:42.790Z,8.26
2022-09-28T23:21:12.424Z,8.22
2022-09-28T23:23:40.214Z,8.22
2022-09-28T23:26:14.191Z,8.20
2022-09-28T23:28:42.437Z,8.20
2022-09-28T23:31:13.827Z,8.17
2022-09-28T23:33:41.608Z,8.16
2022-09-28T23:36:10.052Z,8.13
2022-09-28T23:38:37.852Z,8.10
2022-09-28T23:41:05.788Z,8.05
2022-09-28T23:43:33.566Z,8.03
2022-09-28T23:46:01.467Z,8.01
2022-09-28T23:48:30.850Z,7.94
2022-09-28T23:50:59.162Z,7.96
2022-09-28T23:53:26.816Z,7.94
2022-09-28T23:55:54.375Z,7.96
2022-09-28T23:58:22.469Z,7.97
